Portada
METAR-TAF:

METAR-TAF

Aeropuertos :

Guilin, China

latitud: 25-20N, longitud: 110-18E, altitud: 166 m

Observación

El informe se hizo hace 22 minutos, a las 13:00 UTC
Viento 8 kt del noreste
Temperatura 7°C
Humedad 70%
Presión 1024 hPa
Visibilidad: 6000 m
Cielo cubierto a una altura de 4300 ft

METAR: ZGKL 171300Z 05004MPS 6000 OVC043 07/02 Q1024 NOSIG

Hora: 21:22 (13:22 UTC)

Pronóstico

El informe se hizo hace 4 horas y 10 minutos, a las 09:12 UTC
Pronóstico válido del 17 a las 12 UTC al 18 a las 12 UTC
Viento 6 kt del noreste
Visibilidad: 6000 m
Escasas nubes a una altura de 2600 ft
Cielo cubierto a una altura de 4000 ft
Temporalmente
del 17 a las 18 UTC al 17 a las 24 UTC
Visibilidad: 2500 m
lluvia ligera, neblina

TAF: ZGKL 170912Z 1712/1812 05003MPS 6000 FEW026 OVC040 TX09/1807Z TN04/1722Z TEMPO 1718/1724 2500 -RA BR

Observaciones y pronósticos meteorológicos de más de 4000 aeropuertos (mensajes METAR y TAF).

Los puntos amarillos y rojos representan las estaciones disponibles.

Ponga el ratón en el punto deseado para ver el nombre de la estación.

Haga clic para ver las observaciones y los pronósticos meteorológicos.

Para cambiar el mapa : haga clic en los botones verdes con una cruz de color negro para hacer un zoom, en el botón verde con un guión para alejar o en las flechas verdes para mapas adyacentes.


METAR-TAF: